VHHH/HKG METAR and TAF weather

Enter ICAO airport designator
Station Type Date Time Source
VHHH METAR 2019/06/27 04:30 UTC NOAA

VHHH 270430Z 21010KT 180V250 9999 FEW011 SCT025 33/26 Q1002 NOSIG


Station Type Date Time Source
VHHH Decoded METAR 2019/06/27 04:30 UTC NOAA

Hong Kong Inter-National Airport, Hong Kong (VHHH) 22-20N 114-11E 24M
Jun 27, 2019 - 12:30 AM EDT / 2019.06.27 0430 UTC
Wind: from the SSW (210 degrees) at 12 MPH (10 KT) (direction variable):0
Visibility: greater than 7 mile(s):0
Sky conditions: partly cloudy
Temperature: 91 F (33 C)
Heat index: 106.2 F (41.2 C):1
Dew Point: 78 F (26 C)
Relative Humidity: 66%
Pressure (altimeter): 29.59 in. Hg (1002 hPa)
ob: VHHH 270430Z 21010KT 180V250 9999 FEW011 SCT025 33/26 Q1002 NOSIG
cycle: 4

Station Type Date Time Source
VHHH TAF 2019/06/26 18:39 UTC NOAA

TAF VHHH 261700Z 2618/2724 18010KT 9999 FEW020 SCT030 TX33/2706Z TN28/2622Z TN28/2722Z
TEMPO 2618/2622 VRB05KT
TEMPO 2622/2704 VRB15G25KT 2500 TSRA SHRA FEW010CB SCT020 BKN040
TEMPO 2704/2709 26010KT
TEMPO 2721/2724 3000 SHRA FEW012CB SCT035

Example: see airport list